Time;durP1;ratioP1;P1;durP2;ratioP2;P2;SDS_P1;SDS_P2;PMS_P1;PMS_P2;Temp;Humidity;BMP_temperature;BMP_pressure;BME280_temperature;BME280_humidity;BME280_pressure;Samples;Min_cycle;Max_cycle;Signal;HPM_P1;HPM_P2
2022/07/05 00:01:29;;;;;;;3.60;2.40;;;22.60;1.00;;;;;;5026311;28;20459;-61
2022/07/05 00:03:54;;;;;;;4.03;2.47;;;22.60;1.00;;;;;;5028088;28;20240;-61
2022/07/05 00:06:20;;;;;;;3.23;2.30;;;22.50;1.00;;;;;;5028971;28;20455;-61
2022/07/05 00:08:45;;;;;;;3.90;3.57;;;22.50;1.00;;;;;;5027914;28;20181;-61
2022/07/05 00:11:11;;;;;;;2.63;2.43;;;22.50;1.00;;;;;;5028240;28;20620;-60
2022/07/05 00:13:37;;;;;;;3.27;3.00;;;22.50;1.00;;;;;;5031163;28;20195;-61
2022/07/05 00:16:29;;;;;;;4.00;2.73;;;22.50;1.00;;;;;;5024529;28;20930;-61
2022/07/05 00:18:54;;;;;;;3.87;2.73;;;22.60;1.00;;;;;;5022733;28;20201;-60
2022/07/05 00:21:20;;;;;;;3.20;2.90;;;22.70;1.00;;;;;;5026960;28;20458;-60
2022/07/05 00:23:46;;;;;;;3.30;3.07;;;22.60;1.00;;;;;;5026819;28;20201;-61
2022/07/05 00:26:11;;;;;;;3.77;3.00;;;22.50;1.00;;;;;;5030009;28;20193;-61
2022/07/05 00:28:37;;;;;;;4.87;3.07;;;22.60;1.00;;;;;;5030099;28;20467;-60
2022/07/05 00:31:06;;;;;;;5.90;2.67;;;22.60;1.00;;;;;;5030677;28;20673;-60
2022/07/05 00:33:31;;;;;;;3.30;3.00;;;22.50;1.00;;;;;;5026561;28;20188;-61
2022/07/05 00:35:57;;;;;;;3.20;2.70;;;22.50;1.00;;;;;;5028298;28;20463;-61
2022/07/05 00:38:23;;;;;;;4.53;2.80;;;22.40;1.00;;;;;;5030798;28;20395;-61
2022/07/05 00:40:49;;;;;;;3.10;2.80;;;22.40;1.00;;;;;;5029218;28;20189;-60
2022/07/05 00:43:14;;;;;;;4.13;2.70;;;22.40;1.00;;;;;;5026403;28;20619;-61
2022/07/05 00:45:40;;;;;;;3.80;3.10;;;22.40;1.00;;;;;;5030089;28;20184;-60
2022/07/05 00:48:06;;;;;;;3.20;2.60;;;22.40;1.00;;;;;;5028899;28;20185;-60
2022/07/05 00:50:31;;;;;;;4.63;2.80;;;22.40;1.00;;;;;;5029042;28;20243;-61
2022/07/05 00:52:57;;;;;;;3.20;3.00;;;22.30;1.00;;;;;;5030807;28;20200;-60
2022/07/05 00:55:23;;;;;;;4.40;3.20;;;22.30;1.00;;;;;;5042576;28;20491;-61
2022/07/05 00:57:50;;;;;;;3.33;2.93;;;22.10;1.00;;;;;;5029279;28;20589;-60
2022/07/05 01:00:15;;;;;;;3.03;2.63;;;22.00;1.00;;;;;;5032162;28;20458;-61
2022/07/05 01:02:41;;;;;;;3.60;2.60;;;22.00;1.00;;;;;;5033815;28;20438;-61
2022/07/05 01:05:07;;;;;;;3.37;3.00;;;21.90;1.00;;;;;;5044674;28;20223;-60
2022/07/05 01:07:34;;;;;;;3.30;2.67;;;21.90;1.00;;;;;;5022425;28;20185;-62
2022/07/05 01:09:59;;;;;;;4.13;2.83;;;21.80;1.00;;;;;;5027428;28;20264;-61
2022/07/05 01:12:25;;;;;;;6.70;2.60;;;21.80;1.00;;;;;;5028276;28;20477;-60
2022/07/05 01:14:52;;;;;;;3.40;2.73;;;21.80;1.00;;;;;;5027939;28;20733;-61
2022/07/05 01:17:18;;;;;;;3.40;2.63;;;21.70;1.00;;;;;;5024704;28;20199;-61
2022/07/05 01:19:43;;;;;;;3.80;2.57;;;21.70;1.00;;;;;;5025853;28;20466;-61
2022/07/05 01:22:18;;;;;;;2.80;2.60;;;21.70;1.00;;;;;;5022964;28;21278;-61
2022/07/05 01:24:48;;;;;;;2.83;2.40;;;21.60;1.00;;;;;;5025524;28;20196;-61
2022/07/05 01:27:14;;;;;;;4.97;2.80;;;21.50;1.00;;;;;;5026133;28;20439;-61
2022/07/05 01:29:41;;;;;;;3.50;2.80;;;21.50;1.00;;;;;;5027230;28;20462;-60
2022/07/05 01:32:07;;;;;;;2.53;2.27;;;21.40;1.00;;;;;;5027101;28;21519;-62
2022/07/05 01:34:37;;;;;;;4.13;2.50;;;21.40;1.00;;;;;;5024045;28;20482;-61
2022/07/05 01:37:04;;;;;;;3.43;3.00;;;21.40;1.00;;;;;;5026769;28;21075;-60
2022/07/05 01:39:30;;;;;;;2.80;2.60;;;21.40;1.00;;;;;;5030048;28;20446;-61
2022/07/05 01:41:56;;;;;;;3.17;2.90;;;21.30;1.00;;;;;;5025730;28;20443;-61
2022/07/05 01:44:22;;;;;;;4.23;3.10;;;21.20;1.00;;;;;;5042613;28;20669;-60
2022/07/05 01:46:53;;;;;;;3.00;2.70;;;21.20;1.00;;;;;;5029696;28;20266;-61
2022/07/05 01:49:21;;;;;;;2.73;2.63;;;21.20;1.00;;;;;;5024828;28;20515;-61
2022/07/05 01:52:01;;;;;;;3.30;3.00;;;21.40;1.00;;;;;;5028000;28;21028;-61
2022/07/05 01:54:28;;;;;;;3.60;3.30;;;21.30;1.00;;;;;;5024164;28;20514;-60
2022/07/05 01:56:53;;;;;;;4.13;3.00;;;21.20;1.00;;;;;;5024397;28;20510;-60
2022/07/05 01:59:19;;;;;;;2.93;2.73;;;21.00;1.00;;;;;;5023976;28;20459;-60
2022/07/05 02:01:44;;;;;;;3.10;2.90;;;21.00;1.00;;;;;;5023758;28;20184;-60
2022/07/05 02:04:11;;;;;;;3.40;3.10;;;21.00;1.00;;;;;;5029779;28;20219;-60
2022/07/05 02:06:37;;;;;;;2.80;2.60;;;20.90;1.00;;;;;;5023597;28;20274;-61
2022/07/05 02:09:05;;;;;;;3.50;2.60;;;20.80;1.00;;;;;;5021081;28;20901;-60
2022/07/05 02:11:31;;;;;;;5.97;2.50;;;20.70;1.00;;;;;;5024851;28;20205;-60
2022/07/05 02:14:00;;;;;;;4.93;2.50;;;20.70;1.00;;;;;;5025127;28;20599;-60
2022/07/05 02:16:27;;;;;;;3.17;2.87;;;20.60;1.00;;;;;;5026907;28;20209;-60
2022/07/05 02:18:53;;;;;;;3.17;2.30;;;20.60;1.00;;;;;;5025733;28;20537;-61
2022/07/05 02:21:18;;;;;;;4.10;2.83;;;20.70;1.00;;;;;;5027559;28;20948;-60
2022/07/05 02:23:44;;;;;;;3.00;2.70;;;20.70;1.00;;;;;;5021289;28;20458;-61
2022/07/05 02:26:10;;;;;;;6.53;3.00;;;20.70;1.00;;;;;;5022329;28;20737;-60
2022/07/05 02:28:36;;;;;;;3.00;2.67;;;20.60;1.00;;;;;;5027056;28;20207;-61
2022/07/05 02:31:01;;;;;;;3.20;2.73;;;20.60;1.00;;;;;;5026149;28;20236;-61
2022/07/05 02:33:27;;;;;;;2.83;2.40;;;20.50;1.00;;;;;;5027701;28;20242;-60
2022/07/05 02:35:52;;;;;;;4.73;3.40;;;20.50;1.00;;;;;;5028073;28;20220;-61
2022/07/05 02:38:18;;;;;;;3.00;2.60;;;20.60;1.00;;;;;;5028527;28;20193;-61
2022/07/05 02:40:44;;;;;;;5.40;3.10;;;20.50;1.00;;;;;;5029177;28;20647;-60
2022/07/05 02:43:09;;;;;;;5.00;3.00;;;20.50;1.00;;;;;;5029792;28;20196;-61
2022/07/05 02:45:35;;;;;;;5.13;3.47;;;20.40;1.00;;;;;;5027830;28;20193;-61
2022/07/05 02:48:00;;;;;;;4.00;3.60;;;20.40;1.00;;;;;;5038397;28;20193;-62
2022/07/05 02:50:26;;;;;;;3.13;2.73;;;20.40;1.00;;;;;;5025835;28;20219;-61
2022/07/05 02:52:51;;;;;;;7.67;3.20;;;20.30;1.00;;;;;;5027975;28;20563;-60
2022/07/05 02:55:17;;;;;;;2.87;2.67;;;20.30;1.00;;;;;;5027641;28;20294;-61
2022/07/05 02:57:43;;;;;;;3.37;3.07;;;20.40;1.00;;;;;;5026822;28;20184;-61
2022/07/05 03:00:09;;;;;;;4.37;2.70;;;20.40;1.00;;;;;;5021895;28;20637;-61
2022/07/05 03:02:34;;;;;;;3.30;3.00;;;20.30;1.00;;;;;;5023812;28;20188;-61
2022/07/05 03:05:00;;;;;;;2.83;2.63;;;20.30;1.00;;;;;;5026014;28;20443;-61
2022/07/05 03:07:26;;;;;;;3.30;3.00;;;20.30;1.00;;;;;;5026719;28;20193;-61
2022/07/05 03:09:51;;;;;;;3.40;3.10;;;20.30;1.00;;;;;;5028641;28;20271;-60
2022/07/05 03:12:17;;;;;;;3.50;3.20;;;20.30;1.00;;;;;;5028850;28;20199;-60
2022/07/05 03:14:42;;;;;;;4.20;3.00;;;20.30;1.00;;;;;;5030271;28;20188;-61
2022/07/05 03:17:08;;;;;;;4.33;2.80;;;20.30;1.00;;;;;;5029467;28;20189;-62
2022/07/05 03:19:34;;;;;;;3.37;3.07;;;20.30;1.00;;;;;;5029894;28;20279;-61
2022/07/05 03:21:59;;;;;;;3.57;2.97;;;20.30;1.00;;;;;;5023398;28;20188;-60
2022/07/05 03:24:25;;;;;;;4.30;3.00;;;20.30;1.00;;;;;;5026508;28;20181;-61
2022/07/05 03:26:50;;;;;;;4.80;3.00;;;20.30;1.00;;;;;;5026382;28;20185;-60
2022/07/05 03:29:16;;;;;;;4.33;2.77;;;20.30;1.00;;;;;;5023606;28;20180;-61
2022/07/05 03:31:42;;;;;;;3.20;2.90;;;20.30;1.00;;;;;;5024621;28;20232;-61
2022/07/05 03:34:07;;;;;;;2.90;2.43;;;20.20;1.00;;;;;;5026836;28;20279;-61
2022/07/05 03:36:33;;;;;;;4.17;3.30;;;20.30;1.00;;;;;;5031196;28;20221;-60
2022/07/05 03:38:58;;;;;;;5.27;3.00;;;20.30;1.00;;;;;;5034920;28;20192;-61
2022/07/05 03:41:24;;;;;;;3.30;3.07;;;20.40;1.00;;;;;;5025454;28;20188;-60
2022/07/05 03:43:50;;;;;;;5.47;3.57;;;20.50;1.00;;;;;;5031692;28;20195;-60
2022/07/05 03:46:22;;;;;;;3.03;2.73;;;20.50;1.00;;;;;;5027275;28;20184;-61
2022/07/05 03:48:48;;;;;;;4.00;3.70;;;20.50;1.00;;;;;;5027600;28;20199;-61
2022/07/05 03:51:21;;;;;;;4.00;2.80;;;20.50;1.00;;;;;;5028031;28;20777;-59
2022/07/05 03:53:46;;;;;;;3.67;3.37;;;20.50;1.00;;;;;;5027996;28;20183;-60
2022/07/05 03:56:19;;;;;;;3.73;3.50;;;20.40;1.00;;;;;;5025343;28;20968;-61
2022/07/05 03:58:49;;;;;;;3.70;3.50;;;20.50;1.00;;;;;;5028118;28;20267;-61
2022/07/05 04:01:20;;;;;;;3.53;3.33;;;20.50;1.00;;;;;;5022894;28;20451;-60
2022/07/05 04:03:46;;;;;;;4.50;3.40;;;20.40;1.00;;;;;;5023180;28;20444;-62
2022/07/05 04:06:24;;;;;;;4.47;3.33;;;20.40;1.00;;;;;;5025661;28;20442;-61
2022/07/05 04:08:50;;;;;;;3.77;3.47;;;20.40;1.00;;;;;;5032559;28;20260;-62
2022/07/05 04:11:19;;;;;;;3.13;2.93;;;20.30;1.00;;;;;;5031133;28;20968;-60
2022/07/05 04:13:44;;;;;;;3.37;3.07;;;20.40;1.00;;;;;;5030949;28;20191;-60
2022/07/05 04:16:16;;;;;;;4.70;3.90;;;20.40;1.00;;;;;;5037336;28;20475;-60
2022/07/05 04:18:41;;;;;;;5.23;3.90;;;20.50;1.00;;;;;;5031472;28;20196;-60
2022/07/05 04:21:07;;;;;;;3.73;3.43;;;20.60;1.00;;;;;;5031104;28;20427;-62
2022/07/05 04:23:33;;;;;;;4.53;4.13;;;20.60;1.00;;;;;;5031054;28;20177;-59
2022/07/05 04:26:01;;;;;;;3.70;3.40;;;20.70;1.00;;;;;;5036699;28;20284;-60
2022/07/05 04:28:29;;;;;;;4.07;3.77;;;20.70;1.00;;;;;;5030767;28;20215;-60
2022/07/05 04:30:55;;;;;;;7.03;4.20;;;21.00;1.00;;;;;;5032535;28;20505;-60
2022/07/05 04:33:21;;;;;;;3.53;3.13;;;20.50;1.00;;;;;;5030900;28;20957;-60
2022/07/05 04:35:47;;;;;;;4.13;3.27;;;20.40;1.00;;;;;;5044772;28;20458;-59
2022/07/05 04:38:12;;;;;;;5.13;3.80;;;20.50;1.00;;;;;;5050834;28;20219;-60
2022/07/05 04:40:38;;;;;;;3.47;3.17;;;20.50;1.00;;;;;;5051086;28;20187;-61
2022/07/05 04:43:04;;;;;;;6.90;4.23;;;20.30;1.00;;;;;;5035146;28;20602;-60
2022/07/05 04:45:29;;;;;;;3.83;3.43;;;20.20;1.00;;;;;;5030558;28;20291;-60
2022/07/05 04:47:55;;;;;;;3.50;3.20;;;20.30;1.00;;;;;;5029270;28;20649;-60
2022/07/05 04:50:20;;;;;;;4.30;3.53;;;20.40;1.00;;;;;;5032903;28;20192;-59
2022/07/05 04:52:46;;;;;;;5.90;3.67;;;20.40;1.00;;;;;;5030202;28;20273;-60
2022/07/05 04:55:12;;;;;;;5.77;3.67;;;20.40;1.00;;;;;;5028942;28;20209;-59
2022/07/05 04:57:39;;;;;;;5.90;4.20;;;20.50;1.00;;;;;;5025633;28;20193;-60
2022/07/05 05:00:05;;;;;;;6.50;3.87;;;20.50;1.00;;;;;;5028075;28;20220;-59
2022/07/05 05:02:31;;;;;;;4.93;4.40;;;20.60;1.00;;;;;;5028550;28;20526;-60
2022/07/05 05:04:56;;;;;;;8.30;4.00;;;20.50;1.00;;;;;;5026987;28;20964;-60
2022/07/05 05:07:22;;;;;;;8.13;4.67;;;20.40;1.00;;;;;;5028928;28;20630;-59
2022/07/05 05:09:47;;;;;;;5.30;4.20;;;20.40;1.00;;;;;;5030778;28;20173;-61
2022/07/05 05:12:13;;;;;;;4.77;4.20;;;20.40;1.00;;;;;;5026445;28;20192;-59
2022/07/05 05:14:38;;;;;;;4.00;3.57;;;20.40;1.00;;;;;;5026474;28;20177;-59
2022/07/05 05:17:04;;;;;;;5.60;3.90;;;20.30;1.00;;;;;;5021240;28;20753;-61
2022/07/05 05:19:30;;;;;;;5.63;4.20;;;20.10;1.00;;;;;;5027440;28;20271;-61
2022/07/05 05:21:55;;;;;;;7.80;4.60;;;20.20;1.00;;;;;;5028373;28;20196;-60
2022/07/05 05:24:21;;;;;;;6.60;3.87;;;20.20;1.00;;;;;;5027307;28;20626;-60
2022/07/05 05:26:47;;;;;;;5.37;4.00;;;20.20;1.00;;;;;;5029934;28;20862;-60
2022/07/05 05:29:12;;;;;;;7.50;3.43;;;20.20;1.00;;;;;;5029449;28;20188;-60
2022/07/05 05:31:38;;;;;;;4.90;3.73;;;20.20;1.00;;;;;;5026451;28;20616;-60
2022/07/05 05:34:04;;;;;;;4.83;3.83;;;20.30;1.00;;;;;;5029933;28;20193;-60
2022/07/05 05:36:29;;;;;;;5.67;3.47;;;20.40;1.00;;;;;;5029969;28;20205;-59
2022/07/05 05:38:55;;;;;;;17.03;3.70;;;20.50;1.00;;;;;;5029759;28;20251;-60
2022/07/05 05:41:26;;;;;;;4.20;3.07;;;20.50;1.00;;;;;;5029977;28;20571;-60
2022/07/05 05:43:52;;;;;;;7.43;3.17;;;20.80;1.00;;;;;;5029683;28;20235;-60
2022/07/05 05:46:24;;;;;;;5.63;3.03;;;20.80;1.00;;;;;;5030042;28;20443;-62
2022/07/05 05:48:49;;;;;;;6.07;3.77;;;21.10;1.00;;;;;;5029908;28;20200;-60
2022/07/05 05:51:27;;;;;;;5.70;3.70;;;21.20;1.00;;;;;;5029841;28;20447;-60
2022/07/05 05:53:53;;;;;;;6.27;3.10;;;21.40;1.00;;;;;;5029316;28;20543;-61
2022/07/05 05:56:21;;;;;;;8.30;3.20;;;21.50;1.00;;;;;;5029525;28;20467;-60
2022/07/05 05:58:47;;;;;;;6.70;3.93;;;21.60;1.00;;;;;;5029890;28;20619;-60
2022/07/05 06:01:21;;;;;;;6.80;3.27;;;21.30;1.00;;;;;;5030018;28;20458;-60
2022/07/05 06:03:47;;;;;;;3.77;3.40;;;21.40;1.00;;;;;;5030942;28;20184;-60
2022/07/05 06:06:28;;;;;;;4.60;4.10;;;21.60;1.00;;;;;;5033330;28;20457;-60
2022/07/05 06:08:54;;;;;;;4.27;3.00;;;21.80;1.00;;;;;;5033273;28;20193;-60
2022/07/05 06:11:30;;;;;;;7.60;3.37;;;22.10;1.00;;;;;;5033607;28;20451;-60
2022/07/05 06:13:55;;;;;;;5.23;3.40;;;22.10;1.00;;;;;;5033580;28;20700;-61
2022/07/05 06:16:21;;;;;;;7.07;3.40;;;22.10;1.00;;;;;;5033397;28;20463;-60
2022/07/05 06:18:46;;;;;;;5.80;3.13;;;22.30;1.00;;;;;;5033113;28;20188;-61
2022/07/05 06:21:19;;;;;;;5.33;3.23;;;22.30;1.00;;;;;;5033120;28;20522;-61
2022/07/05 06:23:44;;;;;;;5.30;3.00;;;22.50;1.00;;;;;;5033186;28;20188;-60
2022/07/05 06:26:16;;;;;;;3.30;3.00;;;22.40;1.00;;;;;;5033131;28;20428;-61
2022/07/05 06:28:42;;;;;;;3.60;2.83;;;22.60;1.00;;;;;;5035356;28;20188;-60
2022/07/05 06:31:28;;;;;;;4.77;2.80;;;22.70;1.00;;;;;;5032498;28;20474;-60
2022/07/05 06:33:53;;;;;;;4.83;2.60;;;22.90;1.00;;;;;;5048814;28;20192;-60
2022/07/05 06:36:31;;;;;;;4.00;2.87;;;23.10;1.00;;;;;;5052761;28;20466;-60
2022/07/05 06:38:56;;;;;;;5.20;2.93;;;23.10;1.00;;;;;;5053220;28;20180;-60
2022/07/05 06:41:29;;;;;;;3.20;2.47;;;23.20;1.00;;;;;;5053057;28;20441;-60
2022/07/05 06:43:54;;;;;;;3.10;2.80;;;23.60;1.00;;;;;;5052720;28;20190;-60
2022/07/05 06:46:21;;;;;;;6.40;3.00;;;23.60;1.00;;;;;;5035374;28;20443;-62
2022/07/05 06:48:47;;;;;;;4.97;2.80;;;23.60;1.00;;;;;;5032693;28;20183;-60
2022/07/05 06:51:38;;;;;;;3.70;2.70;;;23.40;1.00;;;;;;5032851;28;20439;-60
2022/07/05 06:54:03;;;;;;;2.43;2.23;;;23.50;1.00;;;;;;5032868;28;20192;-60
2022/07/05 06:56:29;;;;;;;4.77;3.00;;;23.60;1.00;;;;;;5032376;28;20461;-60
2022/07/05 06:58:54;;;;;;;4.97;2.80;;;23.80;1.00;;;;;;5031478;28;20526;-60
2022/07/05 07:01:23;;;;;;;5.43;3.10;;;23.80;1.00;;;;;;5034029;28;20267;-59
2022/07/05 07:03:49;;;;;;;2.60;2.40;;;23.90;1.00;;;;;;5032755;28;20181;-60
2022/07/05 07:06:21;;;;;;;5.60;2.93;;;24.10;1.00;;;;;;5032617;28;20427;-61
2022/07/05 07:11:31;;;;;;;4.30;2.20;;;24.00;1.00;;;;;;5033499;28;20563;-60
2022/07/05 07:13:57;;;;;;;3.03;2.50;;;23.80;1.00;;;;;;5032396;28;20534;-60
2022/07/05 07:16:32;;;;;;;3.83;2.33;;;24.00;1.00;;;;;;5031882;28;20223;-61
2022/07/05 07:18:58;;;;;;;5.07;2.60;;;24.20;1.00;;;;;;5032818;28;20451;-59
2022/07/05 07:21:26;;;;;;;2.77;2.37;;;24.30;1.00;;;;;;5032167;28;20920;-60
2022/07/05 07:23:52;;;;;;;3.70;2.33;;;24.50;1.00;;;;;;5032749;28;20272;-60
2022/07/05 07:26:18;;;;;;;3.90;2.53;;;24.60;1.00;;;;;;5032188;28;20887;-61
2022/07/05 07:28:43;;;;;;;3.33;2.50;;;24.50;1.00;;;;;;5035351;28;20689;-60
2022/07/05 07:31:29;;;;;;;2.23;2.07;;;24.50;1.00;;;;;;5032737;28;20498;-60
2022/07/05 07:33:54;;;;;;;4.57;4.10;;;24.60;1.00;;;;;;5031833;28;20272;-60
2022/07/05 07:36:24;;;;;;;7.00;5.10;;;24.70;1.00;;;;;;5031945;28;21051;-60
2022/07/05 07:38:49;;;;;;;6.77;2.90;;;24.90;1.00;;;;;;5032010;28;20235;-60
2022/07/05 07:41:31;;;;;;;4.50;3.40;;;25.00;1.00;;;;;;5048483;28;20920;-60
2022/07/05 07:43:59;;;;;;;5.07;3.33;;;24.80;1.00;;;;;;5033913;28;20192;-60
2022/07/05 07:46:30;;;;;;;2.60;2.40;;;25.00;1.00;;;;;;5031753;28;20530;-60
2022/07/05 07:48:56;;;;;;;3.60;2.27;;;25.20;1.00;;;;;;5032036;28;20561;-60
2022/07/05 07:51:34;;;;;;;17.60;3.30;;;25.10;1.00;;;;;;5033134;28;20874;-63
2022/07/05 07:54:00;;;;;;;3.57;2.10;;;25.20;1.00;;;;;;5037427;28;20192;-63
2022/07/05 07:56:37;;;;;;;3.80;2.17;;;25.30;1.00;;;;;;5031667;28;20467;-63
2022/07/05 07:59:03;;;;;;;2.20;1.90;;;25.40;1.00;;;;;;5031308;28;20188;-63
2022/07/05 08:01:29;;;;;;;4.60;2.20;;;25.60;1.00;;;;;;5045543;28;20781;-63
2022/07/05 08:03:54;;;;;;;2.70;1.70;;;25.90;1.00;;;;;;5031549;28;20674;-63
2022/07/05 08:06:20;;;;;;;2.33;1.60;;;25.90;1.00;;;;;;5031347;28;20642;-63
2022/07/05 08:08:47;;;;;;;2.93;2.07;;;25.90;1.00;;;;;;5033543;28;20254;-64
2022/07/05 08:11:21;;;;;;;2.43;2.23;;;26.00;1.00;;;;;;5038264;28;20535;-64
2022/07/05 08:13:47;;;;;;;2.80;1.87;;;26.00;1.00;;;;;;5051012;28;20461;-63
2022/07/05 08:16:22;;;;;;;1.70;1.60;;;26.10;1.00;;;;;;5035025;28;20467;-63
2022/07/05 08:21:32;;;;;;;2.20;1.10;;;26.60;1.00;;;;;;5030959;28;20431;-62
2022/07/05 08:24:03;;;;;;;1.70;1.40;;;26.70;1.00;;;;;;5033297;28;20781;-63
2022/07/05 08:26:30;;;;;;;1.40;1.27;;;26.70;1.00;;;;;;5031231;28;20188;-63
2022/07/05 08:29:01;;;;;;;1.77;1.67;;;26.70;1.00;;;;;;5029882;28;20436;-62
2022/07/05 08:31:28;;;;;;;3.33;1.70;;;26.80;1.00;;;;;;5030568;28;20561;-63
2022/07/05 08:33:54;;;;;;;1.90;1.60;;;26.90;1.00;;;;;;5031016;28;20527;-62
2022/07/05 08:36:22;;;;;;;2.70;2.10;;;26.70;1.00;;;;;;5030830;28;20550;-63
2022/07/05 08:38:48;;;;;;;2.47;1.47;;;26.90;1.00;;;;;;5030970;28;20208;-64
2022/07/05 08:41:57;;;;;;;3.37;2.07;;;27.00;1.00;;;;;;5031033;28;20462;-63
2022/07/05 08:44:23;;;;;;;2.23;2.00;;;27.30;1.00;;;;;;5031561;28;20213;-62
2022/07/05 08:46:53;;;;;;;2.50;1.90;;;27.20;1.00;;;;;;5030927;28;20467;-62
2022/07/05 08:49:25;;;;;;;1.77;1.53;;;27.10;1.00;;;;;;5032351;28;20203;-62
2022/07/05 08:51:53;;;;;;;1.40;1.30;;;26.90;1.00;;;;;;5031043;28;20774;-63
2022/07/05 08:54:21;;;;;;;2.27;1.60;;;26.80;1.00;;;;;;5035498;28;20462;-64
2022/07/05 08:56:46;;;;;;;2.80;1.40;;;26.90;1.00;;;;;;5050287;28;20982;-61
2022/07/05 08:59:12;;;;;;;3.00;1.47;;;26.80;1.00;;;;;;5033697;28;20446;-62
2022/07/05 09:01:40;;;;;;;4.90;3.00;;;26.80;1.00;;;;;;5030419;28;20181;-61
2022/07/05 09:04:07;;;;;;;2.20;1.60;;;26.90;1.00;;;;;;5030845;28;20264;-62
2022/07/05 09:06:38;;;;;;;2.70;1.20;;;27.20;1.00;;;;;;5036146;28;20442;-62
2022/07/05 09:09:03;;;;;;;3.10;1.60;;;27.10;1.00;;;;;;5050592;28;20794;-62
2022/07/05 09:11:38;;;;;;;3.07;1.50;;;27.00;1.00;;;;;;5050354;28;20453;-63
2022/07/05 09:14:18;;;;;;;1.30;1.20;;;27.10;1.00;;;;;;5050616;28;20175;-63
2022/07/05 09:16:44;;;;;;;1.87;1.57;;;27.10;1.00;;;;;;5049979;28;20465;-63
2022/07/05 09:19:11;;;;;;;3.87;1.83;;;27.20;1.00;;;;;;5031613;28;20485;-63
2022/07/05 09:21:36;;;;;;;2.10;1.73;;;27.30;1.00;;;;;;5030175;28;20605;-62
2022/07/05 09:24:08;;;;;;;2.80;1.63;;;27.60;1.00;;;;;;5030278;28;20432;-63
2022/07/05 09:26:43;;;;;;;3.43;1.53;;;27.80;1.00;;;;;;5030428;28;20189;-63
2022/07/05 09:29:20;;;;;;;2.10;1.00;;;27.90;1.00;;;;;;5030444;28;20771;-62
2022/07/05 09:31:49;;;;;;;1.57;1.47;;;28.10;1.00;;;;;;5029956;28;20462;-62
2022/07/05 09:34:17;;;;;;;1.80;1.30;;;28.00;1.00;;;;;;5030178;28;20860;-62
2022/07/05 09:36:51;;;;;;;2.63;1.73;;;28.00;1.00;;;;;;5030198;28;20513;-62
2022/07/05 09:39:29;;;;;;;1.80;1.70;;;28.00;1.00;;;;;;5031848;28;20442;-62
2022/07/05 09:42:13;;;;;;;3.50;1.90;;;28.20;1.00;;;;;;5038204;28;20779;-64
2022/07/05 09:44:43;;;;;;;2.53;2.00;;;28.30;1.00;;;;;;5037297;28;20959;-63
2022/07/05 09:47:12;;;;;;;1.67;1.33;;;28.50;1.00;;;;;;5036611;28;21049;-63
2022/07/05 09:50:05;;;;;;;4.00;1.47;;;28.60;1.00;;;;;;5036779;28;20789;-63
2022/07/05 09:52:42;;;;;;;4.23;2.17;;;28.80;1.00;;;;;;5036646;28;20431;-62
2022/07/05 09:55:08;;;;;;;2.10;1.30;;;28.90;1.00;;;;;;5035312;28;20451;-61
2022/07/05 09:57:36;;;;;;;2.37;1.63;;;29.00;1.00;;;;;;5036580;28;20500;-63
2022/07/05 10:00:12;;;;;;;3.83;1.37;;;28.70;1.00;;;;;;5036267;28;20438;-62
2022/07/05 10:02:38;;;;;;;1.67;1.30;;;28.50;1.00;;;;;;5036840;28;20510;-63
2022/07/05 10:05:17;;;;;;;1.83;1.40;;;28.20;1.00;;;;;;5055475;28;21062;-64
2022/07/05 10:07:53;;;;;;;1.90;1.30;;;28.10;1.00;;;;;;5036847;28;20187;-63
2022/07/05 10:10:21;;;;;;;1.60;1.23;;;28.10;1.00;;;;;;5049876;28;20537;-64
2022/07/05 10:12:48;;;;;;;1.87;1.50;;;28.50;1.00;;;;;;5056502;28;20529;-64
2022/07/05 10:15:22;;;;;;;1.30;1.20;;;28.50;1.00;;;;;;5056125;28;20830;-63
2022/07/05 10:18:10;;;;;;;1.93;1.47;;;28.60;1.00;;;;;;5036303;28;20427;-62
2022/07/05 10:20:44;;;;;;;2.37;1.77;;;28.50;1.00;;;;;;5036208;28;20739;-62
2022/07/05 10:23:15;;;;;;;2.67;1.30;;;28.40;1.00;;;;;;5036164;28;20508;-61
2022/07/05 10:25:44;;;;;;;1.90;1.43;;;28.00;1.00;;;;;;5036288;28;20538;-63
2022/07/05 10:28:10;;;;;;;2.73;1.20;;;28.10;1.00;;;;;;5038244;28;21014;-63
2022/07/05 10:30:37;;;;;;;1.43;1.07;;;28.20;1.00;;;;;;5037250;28;20467;-63
2022/07/05 10:33:04;;;;;;;1.40;1.10;;;28.40;1.00;;;;;;5042395;28;20438;-62
2022/07/05 10:35:30;;;;;;;2.30;1.53;;;28.00;1.00;;;;;;5055789;28;20470;-63
2022/07/05 10:37:56;;;;;;;2.00;1.30;;;28.20;1.00;;;;;;5056105;28;20466;-62
2022/07/05 10:40:22;;;;;;;3.43;1.37;;;28.30;1.00;;;;;;5055817;28;20218;-62
2022/07/05 10:42:54;;;;;;;2.53;1.20;;;28.60;1.00;;;;;;5040019;28;20474;-63
2022/07/05 10:45:33;;;;;;;1.77;1.40;;;28.50;1.00;;;;;;5037642;28;20199;-61
2022/07/05 10:48:18;;;;;;;3.77;1.60;;;28.60;1.00;;;;;;5037956;28;20451;-62
2022/07/05 10:51:20;;;;;;;1.93;1.33;;;29.00;1.00;;;;;;5054547;28;20983;-62
2022/07/05 10:53:45;;;;;;;2.90;1.63;;;29.00;1.00;;;;;;5052184;28;20438;-62
2022/07/05 10:56:31;;;;;;;2.10;1.50;;;28.80;1.00;;;;;;5052406;28;20466;-61
2022/07/05 10:59:11;;;;;;;2.60;1.40;;;28.80;1.00;;;;;;5046044;28;20187;-62
2022/07/05 11:01:40;;;;;;;2.93;1.20;;;28.90;1.00;;;;;;5034450;28;20435;-62
2022/07/05 11:04:12;;;;;;;2.90;1.30;;;28.80;1.00;;;;;;5032518;28;20427;-64
2022/07/05 11:06:38;;;;;;;2.13;1.27;;;28.70;1.00;;;;;;5034636;28;20443;-62
2022/07/05 11:09:03;;;;;;;1.37;1.27;;;28.90;1.00;;;;;;5049250;28;20438;-62
2022/07/05 11:11:34;;;;;;;1.60;1.50;;;28.50;1.00;;;;;;5046999;28;20264;-63
2022/07/05 11:14:04;;;;;;;1.60;1.40;;;28.30;1.00;;;;;;5033520;28;20185;-63
2022/07/05 11:16:34;;;;;;;1.60;1.10;;;28.00;1.00;;;;;;5032589;28;20569;-61
2022/07/05 11:19:07;;;;;;;5.00;1.70;;;28.30;1.00;;;;;;5032400;28;20435;-62
2022/07/05 11:21:34;;;;;;;2.00;1.50;;;28.50;1.00;;;;;;5032292;28;20431;-63
2022/07/05 11:24:21;;;;;;;2.90;1.60;;;28.90;1.00;;;;;;5032232;28;20406;-63
2022/07/05 11:26:54;;;;;;;1.50;1.20;;;29.40;1.00;;;;;;5042940;28;20438;-62
2022/07/05 11:29:42;;;;;;;2.90;1.13;;;29.60;1.00;;;;;;5038150;28;20447;-62
2022/07/05 11:32:13;;;;;;;1.97;1.47;;;29.50;1.00;;;;;;5045522;28;20454;-62
2022/07/05 11:34:39;;;;;;;1.40;1.10;;;29.50;1.00;;;;;;5051778;28;20449;-63
2022/07/05 11:37:24;;;;;;;2.20;1.40;;;29.60;1.00;;;;;;5038046;28;20471;-62
2022/07/05 11:40:10;;;;;;;1.60;1.40;;;29.60;1.00;;;;;;5032040;28;20428;-61
2022/07/05 11:42:49;;;;;;;1.93;1.70;;;29.30;1.00;;;;;;5045030;28;20539;-63
2022/07/05 11:45:15;;;;;;;1.80;1.43;;;29.40;1.00;;;;;;5031012;28;20518;-62
2022/07/05 11:47:42;;;;;;;1.73;1.20;;;29.60;1.00;;;;;;5034521;28;20442;-57
2022/07/05 11:50:08;;;;;;;2.67;1.30;;;29.60;1.00;;;;;;5032014;28;20524;-57
2022/07/05 11:52:36;;;;;;;1.90;1.33;;;29.20;1.00;;;;;;5036343;28;20484;-57
2022/07/05 11:55:04;;;;;;;1.30;1.20;;;28.90;1.00;;;;;;5030849;28;20436;-57
2022/07/05 11:57:30;;;;;;;3.00;1.40;;;28.60;1.00;;;;;;5031627;28;20977;-56
2022/07/05 11:59:55;;;;;;;1.50;1.40;;;28.60;1.00;;;;;;5031480;28;20489;-57
2022/07/05 12:02:21;;;;;;;1.70;1.30;;;28.60;1.00;;;;;;5031587;28;20598;-58
2022/07/05 12:04:48;;;;;;;1.10;1.00;;;28.80;1.00;;;;;;5031350;28;20231;-57
2022/07/05 12:07:25;;;;;;;2.33;1.20;;;29.10;1.00;;;;;;5046390;28;20540;-57
2022/07/05 12:12:44;;;;;;;2.50;1.57;;;29.50;1.00;;;;;;5041387;28;20429;-57
2022/07/05 12:15:14;;;;;;;3.20;1.37;;;29.80;1.00;;;;;;5032675;28;20860;-56
2022/07/05 12:17:45;;;;;;;1.90;1.80;;;29.60;1.00;;;;;;5040076;28;20435;-57
2022/07/05 12:20:12;;;;;;;3.40;1.57;;;29.30;1.00;;;;;;5030738;28;20443;-56
2022/07/05 12:22:40;;;;;;;2.93;1.70;;;28.90;1.00;;;;;;5030771;28;20488;-56
2022/07/05 12:25:09;;;;;;;1.40;1.30;;;28.80;1.00;;;;;;5031169;28;20431;-57
2022/07/05 12:27:37;;;;;;;2.67;1.40;;;29.20;1.00;;;;;;5031206;28;20951;-58
2022/07/05 12:30:04;;;;;;;2.57;1.40;;;29.40;1.00;;;;;;5030772;28;20869;-56
2022/07/05 12:32:30;;;;;;;1.70;1.50;;;29.50;1.00;;;;;;5031165;28;20445;-57
2022/07/05 12:34:59;;;;;;;2.70;1.40;;;29.40;1.00;;;;;;5030934;28;20489;-57
2022/07/05 12:37:26;;;;;;;1.83;1.20;;;29.30;1.00;;;;;;5029226;28;20475;-56
2022/07/05 12:40:08;;;;;;;2.80;1.20;;;29.40;1.00;;;;;;5033774;28;20444;-56
2022/07/05 12:42:36;;;;;;;1.50;1.40;;;29.60;1.00;;;;;;5034895;28;20432;-58
2022/07/05 12:45:18;;;;;;;3.13;1.20;;;29.80;1.00;;;;;;5030344;28;20431;-56
2022/07/05 12:47:54;;;;;;;2.23;1.27;;;29.70;1.00;;;;;;5030617;28;20439;-56
2022/07/05 12:50:24;;;;;;;2.00;1.13;;;29.30;1.00;;;;;;5031591;28;20431;-56
2022/07/05 12:58:48;;;;;;;1.63;1.13;;;29.00;1.00;;;;;;5040489;28;20434;-56
2022/07/05 13:01:24;;;;;;;3.17;1.43;;;29.10;1.00;;;;;;5033007;28;20427;-55
2022/07/05 13:04:11;;;;;;;2.33;1.70;;;29.40;1.00;;;;;;5041134;28;20462;-55
2022/07/05 13:07:03;;;;;;;3.63;1.60;;;29.40;1.00;;;;;;5041751;28;20474;-55
2022/07/05 13:09:31;;;;;;;2.60;1.80;;;29.20;1.00;;;;;;5035716;28;20522;-54
2022/07/05 13:12:16;;;;;;;1.20;1.00;;;29.30;1.00;;;;;;5030148;28;20526;-56
2022/07/05 13:14:47;;;;;;;3.13;1.80;;;29.70;1.00;;;;;;5030271;28;20443;-56
2022/07/05 13:17:14;;;;;;;4.50;1.77;;;29.80;1.00;;;;;;5040519;28;20816;-56
2022/07/05 13:19:41;;;;;;;1.80;1.40;;;30.00;1.00;;;;;;5049854;28;20431;-55
2022/07/05 13:22:08;;;;;;;2.27;1.20;;;30.00;1.00;;;;;;5050108;28;20947;-57